Whitchurch, United Kingdom
Current Conditions -  °F | °C
As of 11:50 PM on Tuesday 25 Nov 2014 (Local Time) from EGVP Reporting Station
Broken Clouds Broken Clouds  
Wind Chill: 38°   Ceiling: 1700
Heat Index: 43°   Visibility: 2.6mi
Dew Point: 43°   Wind: 8mph
Humidity: 100%   Direction: 20°NNE
Pressure: 29.94"   Gusts: NA
Location:  51.23°N, 1.34°W
Report Text: EGVP 252350Z AUTO 02007KT 4300 // BKN017/// 06/06 Q1014
Loading
Personal Weather Stations






























Interactive Weather Map New forecast layout! Learn more

10-Day Weather Forecast

Advertisements
Track Severe Weather on mobile